Time;durP1;ratioP1;P1;durP2;ratioP2;P2;SDS_P1;SDS_P2;PMS_P1;PMS_P2;Temp;Humidity;BMP_temperature;BMP_pressure;BME280_temperature;BME280_humidity;BME280_pressure;Samples;Min_cycle;Max_cycle;Signal;HPM_P1;HPM_P2
2023/03/07 00:00:45;;;;;;;16.42;9.35;;;3.20;1.00;;;;;;7340281;19;20014;-75
2023/03/07 00:03:19;;;;;;;17.10;8.63;;;3.20;1.00;;;;;;7386830;19;20078;-75
2023/03/07 00:05:49;;;;;;;15.82;8.57;;;3.10;1.00;;;;;;7359178;19;20101;-75
2023/03/07 00:08:19;;;;;;;19.02;9.25;;;3.10;1.00;;;;;;7358977;19;20719;-75
2023/03/07 00:10:49;;;;;;;15.88;8.77;;;3.10;1.00;;;;;;7358038;19;20014;-75
2023/03/07 00:13:19;;;;;;;16.70;8.95;;;3.10;1.00;;;;;;7356446;19;20082;-74
2023/03/07 00:15:48;;;;;;;16.77;9.43;;;3.20;1.00;;;;;;7382052;19;20018;-75
2023/03/07 00:18:21;;;;;;;15.85;8.65;;;3.10;1.00;;;;;;7356482;19;20110;-75
2023/03/07 00:20:59;;;;;;;14.43;8.73;;;3.10;1.00;;;;;;7359359;19;20015;-74
2023/03/07 00:23:29;;;;;;;17.50;8.77;;;3.10;1.00;;;;;;7358620;19;20093;-75
2023/03/07 00:26:01;;;;;;;14.77;9.77;;;3.10;1.00;;;;;;7360365;19;20011;-75
2023/03/07 00:28:31;;;;;;;16.02;8.45;;;3.20;1.00;;;;;;7358895;19;20111;-74
2023/03/07 00:31:02;;;;;;;14.57;8.68;;;3.10;1.00;;;;;;7381138;19;20388;-74
2023/03/07 00:33:34;;;;;;;17.73;9.68;;;3.10;1.00;;;;;;7357164;19;20010;-74
2023/03/07 00:36:06;;;;;;;14.60;8.23;;;3.10;1.00;;;;;;7359790;19;20078;-76
2023/03/07 00:38:36;;;;;;;17.25;8.73;;;3.20;1.00;;;;;;7358111;19;20015;-74
2023/03/07 00:41:08;;;;;;;15.20;8.73;;;3.20;1.00;;;;;;7358700;19;20022;-74
2023/03/07 00:43:39;;;;;;;17.17;9.07;;;3.20;1.00;;;;;;7357912;19;20025;-74
2023/03/07 00:46:09;;;;;;;17.85;9.05;;;3.30;1.00;;;;;;7380516;19;20082;-75
2023/03/07 00:48:42;;;;;;;15.25;9.35;;;3.20;1.00;;;;;;7357803;19;20480;-75
2023/03/07 00:51:14;;;;;;;17.30;9.10;;;3.20;1.00;;;;;;7360533;19;20410;-75
2023/03/07 00:53:45;;;;;;;16.42;9.32;;;3.20;1.00;;;;;;7357880;19;20439;-75
2023/03/07 00:56:16;;;;;;;15.52;8.60;;;3.20;1.00;;;;;;7359340;19;20049;-75
2023/03/07 00:58:46;;;;;;;16.05;8.95;;;3.20;1.00;;;;;;7357630;19;20093;-75
2023/03/07 01:01:18;;;;;;;14.88;8.80;;;3.10;1.00;;;;;;7386860;19;20023;-75
2023/03/07 01:03:52;;;;;;;17.08;9.40;;;3.10;1.00;;;;;;7387083;19;20046;-75
2023/03/07 01:06:23;;;;;;;;;;;3.10;1.00;;;;;;7386442;19;20006;-75
2023/03/07 01:08:54;;;;;;;16.13;9.05;;;3.10;1.00;;;;;;7384419;19;19923;-75
2023/03/07 01:11:24;;;;;;;15.20;8.50;;;3.20;1.00;;;;;;7388723;19;20018;-75
2023/03/07 01:13:56;;;;;;;14.98;8.73;;;3.20;1.00;;;;;;7385018;19;20340;-75
2023/03/07 01:16:28;;;;;;;18.27;9.85;;;3.20;1.00;;;;;;7383782;19;20042;-75
2023/03/07 01:19:03;;;;;;;14.55;8.18;;;3.20;1.00;;;;;;7385142;19;20022;-75
2023/03/07 01:21:35;;;;;;;15.93;8.43;;;3.10;1.00;;;;;;7388804;19;20027;-75
2023/03/07 01:24:05;;;;;;;14.07;7.97;;;3.20;1.00;;;;;;7386243;19;20015;-75
2023/03/07 01:26:36;;;;;;;14.95;7.93;;;3.20;1.00;;;;;;7392557;19;20060;-75
2023/03/07 01:29:07;;;;;;;14.35;8.02;;;3.10;1.00;;;;;;7393059;19;20637;-75
2023/03/07 01:31:37;;;;;;;14.23;8.02;;;3.20;1.00;;;;;;7394056;19;20089;-74
2023/03/07 01:34:10;;;;;;;15.30;8.27;;;3.20;1.00;;;;;;7391003;19;20007;-74
2023/03/07 01:36:40;;;;;;;13.48;8.00;;;3.20;1.00;;;;;;7393141;19;20765;-75
2023/03/07 01:39:13;;;;;;;18.52;9.27;;;3.20;1.00;;;;;;7388784;19;20014;-75
2023/03/07 01:41:43;;;;;;;14.33;8.00;;;3.20;1.00;;;;;;7395053;19;20019;-74
2023/03/07 01:44:17;;;;;;;14.82;8.52;;;3.20;1.00;;;;;;7393031;19;20506;-74
2023/03/07 01:46:53;;;;;;;16.92;8.75;;;3.20;1.00;;;;;;7392070;19;20060;-74
2023/03/07 01:49:29;;;;;;;14.57;8.18;;;3.20;1.00;;;;;;7389739;19;20050;-75
2023/03/07 01:52:05;;;;;;;15.68;7.65;;;3.20;1.00;;;;;;7396817;19;20014;-75
2023/03/07 01:54:39;;;;;;;13.48;8.27;;;3.10;1.00;;;;;;7391963;19;20023;-75
2023/03/07 01:57:09;;;;;;;14.73;7.88;;;3.10;1.00;;;;;;7392091;19;20024;-75
2023/03/07 01:59:45;;;;;;;15.85;8.55;;;3.10;1.00;;;;;;7386890;19;20353;-75
2023/03/07 02:02:18;;;;;;;17.73;8.60;;;3.10;1.00;;;;;;7396768;19;20021;-75
2023/03/07 02:04:56;;;;;;;14.27;8.57;;;3.10;1.00;;;;;;7393454;19;20514;-74
2023/03/07 02:07:30;;;;;;;13.80;8.02;;;3.10;1.00;;;;;;7390812;19;20043;-74
2023/03/07 02:10:02;;;;;;;13.63;8.10;;;3.10;1.00;;;;;;7388919;19;20547;-74
2023/03/07 02:12:33;;;;;;;14.55;8.30;;;3.10;1.00;;;;;;7395829;19;20466;-75
2023/03/07 02:15:04;;;;;;;15.18;8.30;;;3.10;1.00;;;;;;7389646;19;20358;-75
2023/03/07 02:17:34;;;;;;;16.60;8.30;;;3.10;1.00;;;;;;7390036;19;20021;-75
2023/03/07 02:20:29;;;;;;;14.88;8.07;;;3.10;1.00;;;;;;7386860;19;20017;-74
2023/03/07 02:22:59;;;;;;;17.25;8.85;;;3.10;1.00;;;;;;7391635;19;20021;-75
2023/03/07 02:25:33;;;;;;;15.70;8.35;;;3.10;1.00;;;;;;7390709;19;20015;-74
2023/03/07 02:28:06;;;;;;;13.18;7.88;;;3.10;1.00;;;;;;7391679;19;20010;-74
2023/03/07 02:30:38;;;;;;;15.77;8.18;;;3.10;1.00;;;;;;7390172;19;20380;-75
2023/03/07 02:33:08;;;;;;;17.30;8.75;;;3.20;1.00;;;;;;7390645;19;20011;-75
2023/03/07 02:35:38;;;;;;;14.65;8.05;;;3.10;1.00;;;;;;7391037;19;20018;-75
2023/03/07 02:38:07;;;;;;;14.60;8.35;;;3.10;1.00;;;;;;7390240;19;20105;-75
2023/03/07 02:40:38;;;;;;;14.77;8.10;;;3.10;1.00;;;;;;7387978;19;20019;-74
2023/03/07 02:43:11;;;;;;;15.30;7.68;;;3.10;1.00;;;;;;7391568;19;20077;-75
2023/03/07 02:45:41;;;;;;;16.75;8.18;;;3.20;1.00;;;;;;7390333;19;20078;-75
2023/03/07 02:48:11;;;;;;;14.43;8.13;;;3.20;1.00;;;;;;7390439;19;20028;-75
2023/03/07 02:50:41;;;;;;;14.52;7.90;;;3.20;1.00;;;;;;7388196;19;20018;-75
2023/03/07 02:53:11;;;;;;;13.93;7.63;;;3.10;1.00;;;;;;7389414;19;20021;-75
2023/03/07 02:55:41;;;;;;;13.15;7.53;;;3.10;1.00;;;;;;7390932;19;20495;-75
2023/03/07 02:58:13;;;;;;;14.43;8.18;;;3.20;1.00;;;;;;7389998;19;20025;-75
2023/03/07 03:00:43;;;;;;;13.98;7.82;;;3.10;1.00;;;;;;7388093;19;20115;-75
2023/03/07 03:03:13;;;;;;;13.52;7.93;;;3.10;1.00;;;;;;7391439;19;20014;-75
2023/03/07 03:05:43;;;;;;;16.92;8.48;;;3.10;1.00;;;;;;7390729;19;20557;-75
2023/03/07 03:08:13;;;;;;;15.15;8.23;;;3.20;1.00;;;;;;7388376;19;20022;-75
2023/03/07 03:10:43;;;;;;;14.73;8.50;;;3.20;1.00;;;;;;7389305;19;20050;-75
2023/03/07 03:13:15;;;;;;;13.70;8.35;;;3.10;1.00;;;;;;7391053;19;20481;-75
2023/03/07 03:15:45;;;;;;;15.00;7.88;;;3.10;1.00;;;;;;7389682;19;20014;-75
2023/03/07 03:18:16;;;;;;;16.15;8.20;;;3.10;1.00;;;;;;7389591;19;20015;-75
2023/03/07 03:20:46;;;;;;;15.50;8.27;;;3.10;1.00;;;;;;7388510;19;20014;-75
2023/03/07 03:23:16;;;;;;;11.85;7.00;;;3.10;1.00;;;;;;7389226;19;20022;-75
2023/03/07 03:25:47;;;;;;;15.20;8.20;;;3.20;1.00;;;;;;7389742;19;20015;-75
2023/03/07 03:28:19;;;;;;;14.40;7.90;;;3.20;1.00;;;;;;7389849;19;20398;-74
2023/03/07 03:30:58;;;;;;;14.80;8.35;;;3.30;1.00;;;;;;7387559;19;20023;-75
2023/03/07 03:33:30;;;;;;;13.77;7.82;;;3.30;1.00;;;;;;7388764;19;20014;-75
2023/03/07 03:36:00;;;;;;;18.92;8.88;;;3.40;1.00;;;;;;7388955;19;20094;-75
2023/03/07 03:38:32;;;;;;;14.88;8.25;;;3.40;1.00;;;;;;7387791;19;20490;-75
2023/03/07 03:41:06;;;;;;;13.45;7.70;;;3.40;1.00;;;;;;7389724;19;20022;-74
2023/03/07 03:43:38;;;;;;;14.60;7.90;;;3.40;1.00;;;;;;7388665;19;20018;-75
2023/03/07 03:46:08;;;;;;;15.02;7.75;;;3.40;1.00;;;;;;7389155;19;20570;-75
2023/03/07 03:48:39;;;;;;;15.27;8.55;;;3.40;1.00;;;;;;7386263;19;20086;-75
2023/03/07 03:51:13;;;;;;;13.80;7.97;;;3.40;1.00;;;;;;7389036;19;20010;-75
2023/03/07 03:53:43;;;;;;;15.85;8.27;;;3.40;1.00;;;;;;7388499;19;20018;-75
2023/03/07 03:56:14;;;;;;;15.15;8.75;;;3.40;1.00;;;;;;7389052;19;20014;-75
2023/03/07 03:58:48;;;;;;;16.80;8.02;;;3.40;1.00;;;;;;7386217;19;20538;-75
2023/03/07 04:01:19;;;;;;;16.08;8.15;;;3.30;1.00;;;;;;7389780;19;20081;-75
2023/03/07 04:03:50;;;;;;;14.32;8.18;;;3.40;1.00;;;;;;7388541;19;20082;-75
2023/03/07 04:06:22;;;;;;;15.95;8.90;;;3.30;1.00;;;;;;7387882;19;20382;-75
2023/03/07 04:08:53;;;;;;;16.15;9.07;;;3.30;1.00;;;;;;7385188;19;20007;-75
2023/03/07 04:11:23;;;;;;;15.95;8.55;;;3.30;1.00;;;;;;7387567;19;20395;-75
2023/03/07 04:13:56;;;;;;;17.75;8.85;;;3.30;1.00;;;;;;7386804;19;20034;-75
2023/03/07 04:16:26;;;;;;;14.05;8.30;;;3.30;1.00;;;;;;7388675;19;20010;-74
2023/03/07 04:18:56;;;;;;;14.18;8.45;;;3.30;1.00;;;;;;7386958;19;20026;-75
2023/03/07 04:21:26;;;;;;;18.42;8.63;;;3.30;1.00;;;;;;7388840;19;20017;-75
2023/03/07 04:23:57;;;;;;;15.88;8.05;;;3.30;1.00;;;;;;7387856;19;20018;-75
2023/03/07 04:26:27;;;;;;;18.60;8.98;;;3.30;1.00;;;;;;7387864;19;20067;-74
2023/03/07 04:28:59;;;;;;;13.43;7.90;;;3.30;1.00;;;;;;7386660;19;20018;-75
2023/03/07 04:31:30;;;;;;;16.77;9.27;;;3.30;1.00;;;;;;7389329;19;20451;-74
2023/03/07 04:34:00;;;;;;;15.50;8.52;;;3.30;1.00;;;;;;7387227;19;20033;-74
2023/03/07 04:36:29;;;;;;;15.23;8.90;;;3.40;1.00;;;;;;7384488;19;20359;-74
2023/03/07 04:38:59;;;;;;;16.38;8.57;;;3.30;1.00;;;;;;7386418;19;20018;-74
2023/03/07 04:41:29;;;;;;;15.77;8.68;;;3.30;1.00;;;;;;7389064;19;20971;-74
2023/03/07 04:44:01;;;;;;;17.60;8.60;;;3.40;1.00;;;;;;7386717;19;20023;-74
2023/03/07 04:46:31;;;;;;;14.52;8.02;;;3.40;1.00;;;;;;7387048;19;20042;-75
2023/03/07 04:49:01;;;;;;;15.70;8.27;;;3.30;1.00;;;;;;7383865;19;20027;-74
2023/03/07 04:51:31;;;;;;;17.00;8.02;;;3.40;1.00;;;;;;7387736;19;20007;-74
2023/03/07 04:54:01;;;;;;;16.95;7.72;;;3.40;1.00;;;;;;7387589;19;20458;-74
2023/03/07 04:56:30;;;;;;;16.42;9.15;;;3.40;1.00;;;;;;7387633;19;20038;-74
2023/03/07 04:59:03;;;;;;;16.08;8.27;;;3.50;1.00;;;;;;7385196;19;20019;-74
2023/03/07 05:01:33;;;;;;;14.35;8.05;;;3.50;1.00;;;;;;7395882;19;20346;-74
2023/03/07 05:04:02;;;;;;;15.40;7.80;;;3.60;1.00;;;;;;7394919;19;20014;-74
2023/03/07 05:06:32;;;;;;;12.73;7.55;;;3.60;1.00;;;;;;7394277;19;20020;-74
2023/03/07 05:09:02;;;;;;;14.48;7.18;;;3.60;1.00;;;;;;7393095;19;20105;-74
2023/03/07 05:11:32;;;;;;;14.32;7.88;;;3.70;1.00;;;;;;7396575;19;20095;-74
2023/03/07 05:14:04;;;;;;;10.95;6.82;;;3.80;1.00;;;;;;7392634;19;20014;-74
2023/03/07 05:16:34;;;;;;;12.52;7.20;;;3.90;1.00;;;;;;7392368;19;20102;-74
2023/03/07 05:19:04;;;;;;;14.57;7.72;;;3.90;1.00;;;;;;7392559;19;20093;-74
2023/03/07 05:21:37;;;;;;;13.45;7.38;;;3.90;1.00;;;;;;7395677;19;20019;-75
2023/03/07 05:24:07;;;;;;;13.05;7.40;;;3.90;1.00;;;;;;7393378;19;20018;-75
2023/03/07 05:26:38;;;;;;;12.50;7.45;;;3.90;1.00;;;;;;7394023;19;20011;-75
2023/03/07 05:29:10;;;;;;;14.70;7.65;;;3.90;1.00;;;;;;7392932;19;20011;-75
2023/03/07 05:31:40;;;;;;;10.77;6.65;;;3.90;1.00;;;;;;7396772;19;20010;-75
2023/03/07 05:34:10;;;;;;;13.95;7.53;;;4.00;1.00;;;;;;7393195;19;20010;-75
2023/03/07 05:36:40;;;;;;;13.57;7.38;;;4.00;1.00;;;;;;7393350;19;20486;-75
2023/03/07 05:39:10;;;;;;;13.30;7.63;;;4.00;1.00;;;;;;7391128;19;20491;-75
2023/03/07 05:41:40;;;;;;;14.23;8.23;;;4.00;1.00;;;;;;7395941;19;20446;-75
2023/03/07 05:44:12;;;;;;;13.73;7.45;;;4.00;1.00;;;;;;7392921;19;20010;-75
2023/03/07 05:46:42;;;;;;;12.13;7.15;;;4.00;1.00;;;;;;7393981;19;20015;-75
2023/03/07 05:49:12;;;;;;;13.55;7.32;;;4.00;1.00;;;;;;7390096;19;20014;-74
2023/03/07 05:51:42;;;;;;;15.57;7.30;;;4.00;1.00;;;;;;7396110;19;20078;-74
2023/03/07 05:54:12;;;;;;;12.40;7.43;;;4.10;1.00;;;;;;7391679;19;20077;-74
2023/03/07 05:56:41;;;;;;;15.55;8.40;;;4.00;1.00;;;;;;7389230;19;20022;-76
2023/03/07 05:59:14;;;;;;;14.57;8.68;;;4.10;1.00;;;;;;7389245;19;20018;-76
2023/03/07 06:01:44;;;;;;;17.33;8.98;;;4.00;1.00;;;;;;7392851;19;20021;-76
2023/03/07 06:04:14;;;;;;;15.35;8.32;;;3.80;1.00;;;;;;7389270;19;20482;-75
2023/03/07 06:06:43;;;;;;;18.00;8.93;;;3.70;1.00;;;;;;7392891;19;20014;-74
2023/03/07 06:09:13;;;;;;;14.55;8.38;;;3.70;1.00;;;;;;7389961;19;20042;-75
2023/03/07 06:11:43;;;;;;;15.50;8.02;;;3.70;1.00;;;;;;7393714;19;20010;-75
2023/03/07 06:14:15;;;;;;;17.65;8.73;;;3.60;1.00;;;;;;7391600;19;20021;-75
2023/03/07 06:16:45;;;;;;;15.98;8.77;;;3.70;1.00;;;;;;7388682;19;20014;-75
2023/03/07 06:19:15;;;;;;;15.57;8.27;;;3.70;1.00;;;;;;7388785;19;20481;-74
2023/03/07 06:21:45;;;;;;;15.40;8.32;;;3.60;1.00;;;;;;7395314;19;20014;-75
2023/03/07 06:24:15;;;;;;;16.38;8.80;;;3.70;1.00;;;;;;7391099;19;20078;-74
2023/03/07 06:26:44;;;;;;;17.00;8.90;;;3.70;1.00;;;;;;7391326;19;20018;-73
2023/03/07 06:29:17;;;;;;;15.40;8.38;;;3.70;1.00;;;;;;7388776;19;20018;-75
2023/03/07 06:31:47;;;;;;;13.15;8.30;;;3.70;1.00;;;;;;7392654;19;20168;-76
2023/03/07 06:34:16;;;;;;;14.95;8.52;;;3.70;1.00;;;;;;7390878;19;20014;-74
2023/03/07 06:36:47;;;;;;;16.90;8.55;;;3.70;1.00;;;;;;7387373;19;20508;-76
2023/03/07 06:39:19;;;;;;;17.23;9.13;;;3.80;1.00;;;;;;7387443;19;20035;-74
2023/03/07 06:41:50;;;;;;;16.15;8.98;;;3.80;1.00;;;;;;7393618;19;20010;-74
2023/03/07 06:44:23;;;;;;;15.48;8.45;;;3.80;1.00;;;;;;7391693;19;20010;-74
2023/03/07 06:46:52;;;;;;;18.35;8.48;;;3.80;1.00;;;;;;7390424;19;20725;-75
2023/03/07 06:49:22;;;;;;;18.48;9.43;;;3.90;1.00;;;;;;7385291;19;20025;-75
2023/03/07 06:51:52;;;;;;;14.48;8.82;;;3.90;1.00;;;;;;7394048;19;20010;-75
2023/03/07 06:54:22;;;;;;;14.93;7.68;;;3.90;1.00;;;;;;7390316;19;20018;-75
2023/03/07 06:56:53;;;;;;;15.63;8.80;;;4.00;1.00;;;;;;7387616;19;20014;-75
2023/03/07 06:59:26;;;;;;;15.82;8.38;;;4.00;1.00;;;;;;7387527;19;20340;-74
2023/03/07 07:01:56;;;;;;;18.80;9.10;;;4.10;1.00;;;;;;7393325;19;20017;-74
2023/03/07 07:04:26;;;;;;;15.65;8.68;;;4.10;1.00;;;;;;7390120;19;20078;-75
2023/03/07 07:06:55;;;;;;;17.30;9.05;;;4.10;1.00;;;;;;7390406;19;20128;-74
2023/03/07 07:09:25;;;;;;;17.55;9.50;;;4.20;1.00;;;;;;7386918;19;20466;-74
2023/03/07 07:11:55;;;;;;;15.40;8.32;;;4.20;1.00;;;;;;7392226;19;20014;-75
2023/03/07 07:14:27;;;;;;;14.30;8.10;;;4.20;1.00;;;;;;7389281;19;20014;-74
2023/03/07 07:16:57;;;;;;;16.42;8.20;;;4.20;1.00;;;;;;7387390;19;20086;-74
2023/03/07 07:19:27;;;;;;;16.88;8.27;;;4.30;1.00;;;;;;7385983;19;20096;-75
2023/03/07 07:21:57;;;;;;;16.00;8.38;;;4.30;1.00;;;;;;7391463;19;20017;-75
2023/03/07 07:24:27;;;;;;;15.18;8.55;;;4.30;1.00;;;;;;7386237;19;20415;-75
2023/03/07 07:26:57;;;;;;;17.60;8.13;;;4.30;1.00;;;;;;7387927;19;20507;-74
2023/03/07 07:29:29;;;;;;;14.60;7.90;;;4.40;1.00;;;;;;7388498;19;20471;-73
2023/03/07 07:31:59;;;;;;;13.38;8.05;;;4.50;1.00;;;;;;7393077;19;20011;-74
2023/03/07 07:34:29;;;;;;;15.95;8.00;;;4.60;1.00;;;;;;7388635;19;20042;-74
2023/03/07 07:36:59;;;;;;;16.90;8.38;;;4.70;1.00;;;;;;7387631;19;20350;-74
2023/03/07 07:39:29;;;;;;;18.05;8.77;;;4.80;1.00;;;;;;7385859;19;20368;-74
2023/03/07 07:41:59;;;;;;;16.58;7.78;;;4.90;1.00;;;;;;7391737;19;20336;-76
2023/03/07 07:44:33;;;;;;;18.30;8.70;;;4.90;1.00;;;;;;7389388;19;20033;-75
2023/03/07 07:47:03;;;;;;;14.57;7.30;;;5.00;1.00;;;;;;7389149;19;20019;-73
2023/03/07 07:49:33;;;;;;;16.63;8.60;;;5.10;1.00;;;;;;7384931;19;20023;-74
2023/03/07 07:52:03;;;;;;;14.15;7.40;;;5.10;1.00;;;;;;7393097;19;20014;-74
2023/03/07 07:54:33;;;;;;;15.63;8.75;;;5.20;1.00;;;;;;7388289;19;20026;-74
2023/03/07 07:57:03;;;;;;;14.38;7.43;;;5.40;1.00;;;;;;7387455;19;20012;-74
2023/03/07 07:59:35;;;;;;;17.10;8.80;;;5.40;1.00;;;;;;7384947;19;20066;-73
2023/03/07 08:02:05;;;;;;;12.25;7.55;;;5.50;1.00;;;;;;7392794;19;20017;-74
2023/03/07 08:04:35;;;;;;;15.07;7.82;;;5.50;1.00;;;;;;7387474;19;20542;-74
2023/03/07 08:07:05;;;;;;;12.43;7.57;;;5.60;1.00;;;;;;7386480;19;20031;-75
2023/03/07 08:09:35;;;;;;;14.75;7.85;;;5.60;1.00;;;;;;7384090;19;20018;-73
2023/03/07 08:12:06;;;;;;;15.68;8.05;;;5.60;1.00;;;;;;7392669;19;20015;-73
2023/03/07 08:14:41;;;;;;;17.90;8.25;;;5.30;1.00;;;;;;7388261;19;20024;-74
2023/03/07 08:17:11;;;;;;;12.60;6.75;;;5.70;1.00;;;;;;7386249;19;20533;-74
2023/03/07 08:19:41;;;;;;;13.80;7.97;;;5.70;1.00;;;;;;7384261;19;20031;-74
2023/03/07 08:22:11;;;;;;;11.65;7.20;;;5.80;1.00;;;;;;7392174;19;20029;-74
2023/03/07 08:24:42;;;;;;;15.35;8.00;;;5.90;1.00;;;;;;7386635;19;20039;-73
2023/03/07 08:27:11;;;;;;;11.05;6.75;;;6.10;1.00;;;;;;7389835;19;20021;-73
2023/03/07 08:29:44;;;;;;;13.95;6.93;;;5.90;1.00;;;;;;7386101;19;20014;-73
2023/03/07 08:32:16;;;;;;;13.07;7.70;;;6.00;1.00;;;;;;7390371;19;20030;-74
2023/03/07 08:34:46;;;;;;;14.23;7.35;;;6.00;1.00;;;;;;7386825;19;20102;-73
2023/03/07 08:37:15;;;;;;;11.55;7.00;;;6.10;1.00;;;;;;7385580;19;20015;-73
2023/03/07 08:39:45;;;;;;;11.68;7.13;;;6.30;1.00;;;;;;7382954;19;20026;-72
2023/03/07 08:42:15;;;;;;;13.10;7.07;;;6.20;1.00;;;;;;7391187;19;20368;-74
2023/03/07 08:44:47;;;;;;;13.18;6.80;;;6.20;1.00;;;;;;7387052;19;20025;-74
2023/03/07 08:47:17;;;;;;;12.82;7.68;;;6.30;1.00;;;;;;7386093;19;20078;-74
2023/03/07 08:49:47;;;;;;;12.82;6.90;;;6.60;1.00;;;;;;7383497;19;20093;-74
2023/03/07 08:52:17;;;;;;;13.05;7.35;;;6.70;1.00;;;;;;7386957;19;20013;-74
2023/03/07 08:54:47;;;;;;;12.20;7.70;;;6.80;1.00;;;;;;7386132;19;20115;-74
2023/03/07 08:57:16;;;;;;;12.52;7.10;;;6.80;1.00;;;;;;7385818;19;20413;-74
2023/03/07 08:59:49;;;;;;;13.48;8.10;;;7.00;1.00;;;;;;7383898;19;20020;-74
2023/03/07 09:02:19;;;;;;;15.07;7.80;;;7.00;1.00;;;;;;7386200;19;20081;-74
2023/03/07 09:04:49;;;;;;;14.18;7.50;;;7.20;1.00;;;;;;7386549;19;20090;-74
2023/03/07 09:07:19;;;;;;;13.23;6.97;;;7.40;1.00;;;;;;7387025;19;20014;-74
2023/03/07 09:09:49;;;;;;;14.07;7.35;;;7.10;1.00;;;;;;7385371;19;20046;-74
2023/03/07 09:12:19;;;;;;;10.98;6.88;;;6.90;1.00;;;;;;7388831;19;20015;-74
2023/03/07 09:14:51;;;;;;;10.50;6.30;;;7.20;1.00;;;;;;7386477;19;20069;-74
2023/03/07 09:17:21;;;;;;;9.95;6.20;;;7.10;1.00;;;;;;7384557;19;20034;-74
2023/03/07 09:19:51;;;;;;;10.82;6.45;;;6.90;1.00;;;;;;7400220;19;20017;-74
2023/03/07 09:22:21;;;;;;;13.40;6.60;;;7.30;1.00;;;;;;7418817;19;20007;-73
2023/03/07 09:24:50;;;;;;;10.10;6.18;;;7.20;1.00;;;;;;7419806;19;20461;-74
2023/03/07 09:27:20;;;;;;;9.60;5.57;;;7.20;1.00;;;;;;7399287;19;20018;-74
2023/03/07 09:29:53;;;;;;;9.52;5.50;;;7.20;1.00;;;;;;7383683;19;20011;-75
2023/03/07 09:32:23;;;;;;;11.77;5.65;;;7.30;1.00;;;;;;7383110;19;20011;-74
2023/03/07 09:34:53;;;;;;;8.93;5.32;;;7.20;1.00;;;;;;7385714;19;20014;-75
2023/03/07 09:37:23;;;;;;;8.35;5.22;;;7.20;1.00;;;;;;7382395;19;20025;-75
2023/03/07 09:39:53;;;;;;;8.07;5.10;;;7.00;1.00;;;;;;7316283;19;20022;-75
2023/03/07 09:42:29;;;;;;;11.77;5.43;;;6.90;1.00;;;;;;7380456;19;20090;-75
2023/03/07 09:45:16;;;;;;;8.48;5.05;;;7.00;1.00;;;;;;7357061;19;20014;-75
2023/03/07 09:48:10;;;;;;;10.23;5.57;;;6.70;1.00;;;;;;7364722;19;20078;-75
2023/03/07 09:50:46;;;;;;;8.25;5.25;;;6.50;1.00;;;;;;7362492;19;20019;-76
2023/03/07 09:53:23;;;;;;;10.23;5.25;;;6.60;1.00;;;;;;7387238;19;20015;-75
2023/03/07 09:55:56;;;;;;;8.68;5.18;;;6.50;1.00;;;;;;7364578;19;20018;-75
2023/03/07 09:58:28;;;;;;;8.95;4.95;;;6.70;1.00;;;;;;7360819;19;20022;-75
2023/03/07 10:01:02;;;;;;;8.10;4.90;;;7.10;1.00;;;;;;7364963;19;20544;-75
2023/03/07 10:03:39;;;;;;;9.55;5.30;;;6.90;1.00;;;;;;7364208;19;20021;-74
2023/03/07 10:06:15;;;;;;;8.60;4.88;;;6.70;1.00;;;;;;7365920;19;20021;-75
2023/03/07 10:08:45;;;;;;;7.38;4.63;;;7.00;1.00;;;;;;7360836;19;20473;-75
2023/03/07 10:11:25;;;;;;;7.57;5.10;;;6.70;1.00;;;;;;7387674;19;20089;-75
2023/03/07 10:14:21;;;;;;;7.50;4.50;;;6.70;1.00;;;;;;7365897;19;20048;-76
2023/03/07 10:17:02;;;;;;;7.30;4.35;;;6.60;1.00;;;;;;7362238;19;20044;-75
2023/03/07 10:19:38;;;;;;;9.27;4.40;;;6.70;1.00;;;;;;7359758;19;20359;-75
2023/03/07 10:22:18;;;;;;;9.45;4.80;;;6.70;1.00;;;;;;7364006;19;20022;-76
2023/03/07 10:25:02;;;;;;;8.93;5.07;;;6.80;1.00;;;;;;7362952;19;20502;-75
2023/03/07 10:27:33;;;;;;;8.15;4.45;;;6.30;1.00;;;;;;7363649;19;20377;-75
2023/03/07 10:30:16;;;;;;;7.72;4.53;;;6.40;1.00;;;;;;7362664;19;20093;-75
2023/03/07 10:32:53;;;;;;;13.90;7.63;;;6.40;1.00;;;;;;7364624;19;20027;-76
2023/03/07 10:35:24;;;;;;;6.38;3.95;;;6.60;1.00;;;;;;7374531;19;20066;-77
2023/03/07 10:37:58;;;;;;;7.05;4.60;;;6.30;1.00;;;;;;7384979;19;20018;-76
2023/03/07 10:40:31;;;;;;;7.65;4.10;;;6.30;1.00;;;;;;7360906;19;20015;-76
2023/03/07 10:43:02;;;;;;;6.72;3.97;;;6.30;1.00;;;;;;7397319;19;20565;-77
2023/03/07 10:45:36;;;;;;;13.43;4.00;;;6.20;1.00;;;;;;7392419;19;20014;-76
2023/03/07 10:48:16;;;;;;;8.02;4.28;;;6.20;1.00;;;;;;7391809;19;20358;-76
2023/03/07 10:50:55;;;;;;;6.43;4.03;;;6.20;1.00;;;;;;7390190;19;20014;-76
2023/03/07 10:53:28;;;;;;;7.38;4.50;;;6.10;1.00;;;;;;7392398;19;20015;-76
2023/03/07 10:56:12;;;;;;;7.40;4.68;;;6.20;1.00;;;;;;7390556;19;20022;-76
2023/03/07 10:59:00;;;;;;;7.73;4.87;;;6.00;1.00;;;;;;7386059;19;20019;-75
2023/03/07 11:01:30;;;;;;;9.60;5.50;;;6.10;1.00;;;;;;7389946;19;20631;-75
2023/03/07 11:04:05;;;;;;;7.80;4.63;;;6.10;1.00;;;;;;7390491;19;20021;-75
2023/03/07 11:06:38;;;;;;;7.00;4.53;;;6.10;1.00;;;;;;7392427;19;20039;-75
2023/03/07 11:09:19;;;;;;;8.85;4.63;;;6.00;1.00;;;;;;7390800;19;20018;-76
2023/03/07 11:11:53;;;;;;;8.00;5.00;;;6.10;1.00;;;;;;7391980;19;20082;-76
2023/03/07 11:14:24;;;;;;;10.68;7.03;;;6.00;1.00;;;;;;7391533;19;20022;-75
2023/03/07 11:16:56;;;;;;;12.20;8.55;;;6.10;1.00;;;;;;7389863;19;20117;-76
2023/03/07 11:19:47;;;;;;;8.32;5.20;;;6.10;1.00;;;;;;7389066;19;20009;-76
2023/03/07 11:22:23;;;;;;;7.90;4.75;;;6.00;1.00;;;;;;7391984;19;20066;-76
2023/03/07 11:25:00;;;;;;;9.50;5.25;;;6.00;1.00;;;;;;7390282;19;20026;-76
2023/03/07 11:27:39;;;;;;;9.73;5.55;;;6.00;1.00;;;;;;7391232;19;20110;-75
2023/03/07 11:30:26;;;;;;;8.05;5.00;;;5.90;1.00;;;;;;7384707;19;20388;-75
2023/03/07 11:33:12;;;;;;;11.73;5.28;;;6.00;1.00;;;;;;7390032;19;20014;-73
2023/03/07 11:36:03;;;;;;;9.55;4.72;;;5.90;1.00;;;;;;7391290;19;20035;-74
2023/03/07 11:38:42;;;;;;;7.38;4.82;;;6.00;1.00;;;;;;7387672;19;20470;-75
2023/03/07 11:41:18;;;;;;;8.35;4.85;;;6.00;1.00;;;;;;7388213;19;20443;-76
2023/03/07 11:44:06;;;;;;;7.90;4.80;;;6.00;1.00;;;;;;7388935;19;20022;-76
2023/03/07 11:46:46;;;;;;;12.55;5.50;;;6.00;1.00;;;;;;7389592;19;20046;-75
2023/03/07 11:49:31;;;;;;;7.93;4.50;;;6.10;1.00;;;;;;7389795;19;20078;-75
2023/03/07 11:52:16;;;;;;;9.65;5.00;;;6.30;1.00;;;;;;7390223;19;20018;-76
2023/03/07 11:54:54;;;;;;;10.13;5.03;;;6.30;1.00;;;;;;7389090;19;20380;-77
2023/03/07 11:57:34;;;;;;;8.45;4.45;;;6.30;1.00;;;;;;7389322;19;20044;-75
2023/03/07 12:00:25;;;;;;;6.78;4.38;;;6.60;1.00;;;;;;7383466;19;20486;-75
2023/03/07 12:03:25;;;;;;;9.27;4.80;;;6.80;1.00;;;;;;7389322;19;20026;-75
2023/03/07 12:06:14;;;;;;;9.70;4.72;;;6.60;1.00;;;;;;7390000;19;20375;-76
2023/03/07 12:08:57;;;;;;;9.43;4.75;;;6.80;1.00;;;;;;7388315;19;20470;-75
2023/03/07 12:11:46;;;;;;;8.38;4.65;;;7.00;1.00;;;;;;7388940;19;20058;-75
2023/03/07 12:14:24;;;;;;;6.82;4.57;;;7.00;1.00;;;;;;7331866;19;20105;-75
2023/03/07 12:17:07;;;;;;;9.32;4.95;;;6.90;1.00;;;;;;7382988;19;20011;-76
2023/03/07 12:20:04;;;;;;;7.88;4.30;;;7.00;1.00;;;;;;7357791;19;20018;-75
2023/03/07 12:22:45;;;;;;;9.05;4.22;;;7.10;1.00;;;;;;7361595;19;20018;-76
2023/03/07 12:25:32;;;;;;;8.23;4.45;;;7.00;1.00;;;;;;7361479;19;20053;-75
2023/03/07 12:28:11;;;;;;;7.35;4.30;;;6.90;1.00;;;;;;7372603;19;20014;-75
2023/03/07 12:30:57;;;;;;;10.57;5.35;;;7.20;1.00;;;;;;7381460;19;20027;-76
2023/03/07 12:33:33;;;;;;;8.20;4.68;;;7.00;1.00;;;;;;7360951;19;20073;-76
2023/03/07 12:36:09;;;;;;;8.48;4.72;;;6.90;1.00;;;;;;7358731;19;20458;-76
2023/03/07 12:38:43;;;;;;;8.38;4.63;;;6.80;1.00;;;;;;7358727;19;20593;-77
2023/03/07 12:41:27;;;;;;;9.80;5.05;;;6.80;1.00;;;;;;7361108;19;20040;-76
2023/03/07 12:44:04;;;;;;;6.65;4.07;;;6.90;1.00;;;;;;7362957;19;20523;-76
2023/03/07 12:46:40;;;;;;;9.02;4.82;;;6.80;1.00;;;;;;7359542;19;20042;-78
2023/03/07 12:49:18;;;;;;;6.03;3.97;;;7.00;1.00;;;;;;7357645;19;20019;-75
2023/03/07 12:51:51;;;;;;;10.73;4.47;;;7.20;1.00;;;;;;7410217;19;20014;-77
2023/03/07 12:54:24;;;;;;;9.15;4.10;;;7.20;1.00;;;;;;7392737;19;20022;-77
2023/03/07 12:57:03;;;;;;;6.88;4.35;;;7.10;1.00;;;;;;7390540;19;20014;-72
2023/03/07 12:59:36;;;;;;;8.43;4.90;;;7.30;1.00;;;;;;7359811;19;20018;-77
2023/03/07 13:02:12;;;;;;;7.47;4.93;;;7.50;1.00;;;;;;7360577;19;20046;-76
2023/03/07 13:04:44;;;;;;;8.15;5.05;;;7.60;1.00;;;;;;7357671;19;20451;-77
2023/03/07 13:07:17;;;;;;;8.43;4.60;;;7.70;1.00;;;;;;7359961;19;20015;-76
2023/03/07 13:09:49;;;;;;;8.13;4.65;;;7.70;1.00;;;;;;7376187;19;20019;-76
2023/03/07 13:12:43;;;;;;;7.95;4.78;;;7.70;1.00;;;;;;7357809;19;20041;-78
2023/03/07 13:15:48;;;;;;;7.43;4.45;;;7.70;1.00;;;;;;7356920;19;20029;-77
2023/03/07 13:18:29;;;;;;;8.00;3.92;;;7.60;1.00;;;;;;7383737;19;20429;-77
2023/03/07 13:21:13;;;;;;;8.73;4.38;;;7.40;1.00;;;;;;7384983;19;20022;-77
2023/03/07 13:23:43;;;;;;;6.82;4.10;;;7.60;1.00;;;;;;7391999;19;20022;-77
2023/03/07 13:26:15;;;;;;;6.40;4.03;;;7.50;1.00;;;;;;7395522;19;20152;-75
2023/03/07 13:28:52;;;;;;;12.90;4.82;;;7.30;1.00;;;;;;7391924;19;20018;-78
2023/03/07 13:31:46;;;;;;;7.53;4.30;;;6.90;1.00;;;;;;7393675;19;20014;-78